首页
METAR-TAF:

METAR-TAF

机场 :

Charles B. Wheeler Downtown Airport

堪薩斯城, 密蘇里州, 美国

纬度: 39-07-15N, 经度: 094-35-49W, 海拔: 231米

当前天气观测

该预报发布于1小时和8分钟前的05:54 UTC
风速7节,风向
温度 9°C
湿度 40%
气压 1018 hPa
能見度: 16.1公里
天空无云

METAR: KMKC 170554Z 18007KT 10SM CLR 09/M04 A3005 RMK AO2 SLP176 T00941039 10117 20089 401500022 58001

时间: 01:02 (07:02 UTC)

预报

该预报发布于1小时和42分钟前的05:20 UTC
预报有效从17日的 06点(UTC)到 18日的 06点(UTC)
风速8节,风向
能見度: 10公里
阴天层高于15000英尺
从 17日的 1400点(UTC)
风速12节,风向西北
能見度: 10公里
散云层高于2000英尺
阴天层高于4500英尺
从 18日的 0000点(UTC)
风速2节,风向西北
能見度: 10公里
少量云层高于20000英尺

TAF: KMKC 170520Z 1706/1806 19008KT P6SM OVC150 FM171400 31012KT P6SM SCT020 OVC045 FM180000 31002KT P6SM FEW200

超过4000个机场的气象观测和天气预报(METAR&TAF报告)。

可查询的气象台以黄色和红色小点在地图上表示。

将鼠标移到小点上方,可查看气象台名称。

然后点击查看天气观测和预报。

如需切换地图:点击带黑十字的绿色按钮放大地图;点击带横线的绿色按钮缩小地图;或者点击绿色箭头查看邻近地区的地图。


METAR-TAF: